sensor_id;sensor_type;location;lat;lon;timestamp;pressure;altitude;pressure_sealevel;temperature;humidity
40117;BME280;25829;50.228;18.936;2023-03-16T00:02:00;98787.03;;;-0.91;63.07
40117;BME280;25829;50.228;18.936;2023-03-16T00:05:00;98791.31;;;-0.90;63.20
40117;BME280;25829;50.228;18.936;2023-03-16T00:08:01;98799.19;;;-0.92;63.55
40117;BME280;25829;50.228;18.936;2023-03-16T00:11:02;98795.78;;;-0.92;63.30
40117;BME280;25829;50.228;18.936;2023-03-16T00:14:03;98792.47;;;-0.94;63.21
40117;BME280;25829;50.228;18.936;2023-03-16T00:17:04;98790.16;;;-0.97;63.62
40117;BME280;25829;50.228;18.936;2023-03-16T00:20:06;98794.50;;;-0.98;63.52
40117;BME280;25829;50.228;18.936;2023-03-16T00:23:07;98792.44;;;-1.04;63.55
40117;BME280;25829;50.228;18.936;2023-03-16T00:26:08;98803.16;;;-1.09;63.55
40117;BME280;25829;50.228;18.936;2023-03-16T00:29:09;98807.50;;;-1.09;63.82
40117;BME280;25829;50.228;18.936;2023-03-16T00:32:19;98795.63;;;-1.12;63.95
40117;BME280;25829;50.228;18.936;2023-03-16T00:35:22;98804.59;;;-1.16;64.04
40117;BME280;25829;50.228;18.936;2023-03-16T00:38:23;98799.66;;;-1.19;63.94
40117;BME280;25829;50.228;18.936;2023-03-16T00:41:26;98805.94;;;-1.21;64.04
40117;BME280;25829;50.228;18.936;2023-03-16T00:44:27;98805.34;;;-1.25;63.96
40117;BME280;25829;50.228;18.936;2023-03-16T00:47:33;98801.34;;;-1.29;64.29
40117;BME280;25829;50.228;18.936;2023-03-16T00:50:33;98803.25;;;-1.31;64.18
40117;BME280;25829;50.228;18.936;2023-03-16T00:53:35;98797.50;;;-1.35;64.25
40117;BME280;25829;50.228;18.936;2023-03-16T00:56:36;98802.34;;;-1.41;64.45
40117;BME280;25829;50.228;18.936;2023-03-16T00:59:37;98805.03;;;-1.43;64.59
40117;BME280;25829;50.228;18.936;2023-03-16T01:02:38;98803.53;;;-1.45;64.65
40117;BME280;25829;50.228;18.936;2023-03-16T01:05:40;98812.22;;;-1.46;64.50
40117;BME280;25829;50.228;18.936;2023-03-16T01:08:42;98810.50;;;-1.46;64.72
40117;BME280;25829;50.228;18.936;2023-03-16T01:11:43;98812.38;;;-1.48;64.36
40117;BME280;25829;50.228;18.936;2023-03-16T01:14:45;98819.41;;;-1.50;64.92
40117;BME280;25829;50.228;18.936;2023-03-16T01:17:46;98812.75;;;-1.52;64.90
40117;BME280;25829;50.228;18.936;2023-03-16T01:20:46;98807.81;;;-1.56;64.92
40117;BME280;25829;50.228;18.936;2023-03-16T01:23:50;98813.31;;;-1.60;64.86
40117;BME280;25829;50.228;18.936;2023-03-16T01:26:53;98815.47;;;-1.65;64.82
40117;BME280;25829;50.228;18.936;2023-03-16T01:29:54;98828.41;;;-1.65;64.98
40117;BME280;25829;50.228;18.936;2023-03-16T01:32:55;98820.88;;;-1.68;64.77
40117;BME280;25829;50.228;18.936;2023-03-16T01:36:03;98822.50;;;-1.67;64.85
40117;BME280;25829;50.228;18.936;2023-03-16T01:39:12;98826.06;;;-1.68;64.64
40117;BME280;25829;50.228;18.936;2023-03-16T01:42:17;98835.09;;;-1.74;64.98
40117;BME280;25829;50.228;18.936;2023-03-16T01:49:05;98834.41;;;-1.76;64.86
40117;BME280;25829;50.228;18.936;2023-03-16T01:52:12;98824.44;;;-1.81;65.08
40117;BME280;25829;50.228;18.936;2023-03-16T01:55:15;98833.13;;;-1.82;65.13
40117;BME280;25829;50.228;18.936;2023-03-16T01:58:16;98837.47;;;-1.82;65.06
40117;BME280;25829;50.228;18.936;2023-03-16T02:01:18;98834.22;;;-1.84;65.31
40117;BME280;25829;50.228;18.936;2023-03-16T02:07:40;98837.38;;;-1.92;65.37
40117;BME280;25829;50.228;18.936;2023-03-16T02:10:49;98840.09;;;-1.93;65.21
40117;BME280;25829;50.228;18.936;2023-03-16T02:13:57;98835.16;;;-1.96;65.45
40117;BME280;25829;50.228;18.936;2023-03-16T02:17:02;98844.91;;;-2.00;65.43
40117;BME280;25829;50.228;18.936;2023-03-16T02:20:22;98853.59;;;-2.01;65.51
40117;BME280;25829;50.228;18.936;2023-03-16T02:23:25;98851.34;;;-2.06;65.72
40117;BME280;25829;50.228;18.936;2023-03-16T02:27:07;98847.00;;;-2.05;65.49
40117;BME280;25829;50.228;18.936;2023-03-16T02:30:13;98871.34;;;-2.08;65.71
40117;BME280;25829;50.228;18.936;2023-03-16T02:33:28;98875.81;;;-2.10;65.72
40117;BME280;25829;50.228;18.936;2023-03-16T02:36:31;98870.84;;;-2.13;66.07
40117;BME280;25829;50.228;18.936;2023-03-16T02:39:33;98880.59;;;-2.16;65.97
40117;BME280;25829;50.228;18.936;2023-03-16T02:42:34;98884.38;;;-2.20;66.12
40117;BME280;25829;50.228;18.936;2023-03-16T02:45:51;98891.41;;;-2.22;65.58
40117;BME280;25829;50.228;18.936;2023-03-16T02:49:10;98899.28;;;-2.24;65.72
40117;BME280;25829;50.228;18.936;2023-03-16T02:52:15;98901.16;;;-2.26;65.80
40117;BME280;25829;50.228;18.936;2023-03-16T02:55:16;98906.56;;;-2.29;66.05
40117;BME280;25829;50.228;18.936;2023-03-16T02:58:19;98911.97;;;-2.32;65.89
40117;BME280;25829;50.228;18.936;2023-03-16T03:01:20;98917.38;;;-2.35;66.08
40117;BME280;25829;50.228;18.936;2023-03-16T03:04:22;98913.00;;;-2.35;65.85
40117;BME280;25829;50.228;18.936;2023-03-16T03:07:24;98919.00;;;-2.34;65.75
40117;BME280;25829;50.228;18.936;2023-03-16T03:10:35;98924.41;;;-2.37;65.83
40117;BME280;25829;50.228;18.936;2023-03-16T03:13:36;98921.94;;;-2.39;65.76
40117;BME280;25829;50.228;18.936;2023-03-16T03:16:47;98920.28;;;-2.40;65.93
40117;BME280;25829;50.228;18.936;2023-03-16T03:19:49;98930.00;;;-2.43;66.15
40117;BME280;25829;50.228;18.936;2023-03-16T03:22:50;98920.97;;;-2.49;66.39
40117;BME280;25829;50.228;18.936;2023-03-16T03:25:56;98922.97;;;-2.53;65.90
40117;BME280;25829;50.228;18.936;2023-03-16T03:28:58;98925.84;;;-2.57;66.25
40117;BME280;25829;50.228;18.936;2023-03-16T03:32:03;98930.22;;;-2.58;66.32
40117;BME280;25829;50.228;18.936;2023-03-16T03:35:05;98943.25;;;-2.59;66.47
40117;BME280;25829;50.228;18.936;2023-03-16T03:38:06;98946.88;;;-2.62;66.45
40117;BME280;25829;50.228;18.936;2023-03-16T03:41:08;98946.28;;;-2.65;66.38
40117;BME280;25829;50.228;18.936;2023-03-16T03:44:11;98952.38;;;-2.66;66.45
40117;BME280;25829;50.228;18.936;2023-03-16T03:47:12;98947.53;;;-2.71;66.48
40117;BME280;25829;50.228;18.936;2023-03-16T03:50:14;98963.16;;;-2.72;66.74
40117;BME280;25829;50.228;18.936;2023-03-16T03:53:37;98965.94;;;-2.76;66.55
40117;BME280;25829;50.228;18.936;2023-03-16T03:57:02;98958.41;;;-2.79;66.78
40117;BME280;25829;50.228;18.936;2023-03-16T04:00:05;98963.47;;;-2.77;66.42
40117;BME280;25829;50.228;18.936;2023-03-16T04:03:13;98967.94;;;-2.79;66.63
40117;BME280;25829;50.228;18.936;2023-03-16T04:06:18;98967.94;;;-2.79;66.77
40117;BME280;25829;50.228;18.936;2023-03-16T04:09:19;98973.22;;;-2.81;67.00
40117;BME280;25829;50.228;18.936;2023-03-16T04:12:20;98968.25;;;-2.84;66.68
40117;BME280;25829;50.228;18.936;2023-03-16T04:15:21;98976.22;;;-2.87;66.51
40117;BME280;25829;50.228;18.936;2023-03-16T04:18:57;98971.88;;;-2.86;66.83
40117;BME280;25829;50.228;18.936;2023-03-16T04:21:59;98976.22;;;-2.87;67.22
40117;BME280;25829;50.228;18.936;2023-03-16T04:24:59;98966.84;;;-2.88;67.15
40117;BME280;25829;50.228;18.936;2023-03-16T04:28:04;98979.75;;;-2.88;67.29
40117;BME280;25829;50.228;18.936;2023-03-16T04:31:09;98981.38;;;-2.87;67.10
40117;BME280;25829;50.228;18.936;2023-03-16T04:34:14;98985.00;;;-2.89;67.02
40117;BME280;25829;50.228;18.936;2023-03-16T04:37:15;98984.06;;;-2.88;66.95
40117;BME280;25829;50.228;18.936;2023-03-16T04:40:17;98986.56;;;-2.87;66.67
40117;BME280;25829;50.228;18.936;2023-03-16T04:43:34;98977.16;;;-2.88;66.78
40117;BME280;25829;50.228;18.936;2023-03-16T04:46:52;98982.53;;;-2.91;66.99
40117;BME280;25829;50.228;18.936;2023-03-16T04:49:54;98992.06;;;-2.91;66.95
40117;BME280;25829;50.228;18.936;2023-03-16T04:52:55;98991.31;;;-2.93;66.89
40117;BME280;25829;50.228;18.936;2023-03-16T04:55:57;98992.28;;;-2.94;66.85
40117;BME280;25829;50.228;18.936;2023-03-16T04:58:58;98995.97;;;-2.99;67.24
40117;BME280;25829;50.228;18.936;2023-03-16T05:02:04;99001.38;;;-3.02;67.03
40117;BME280;25829;50.228;18.936;2023-03-16T05:05:06;99006.53;;;-3.02;66.99
40117;BME280;25829;50.228;18.936;2023-03-16T05:08:07;99005.94;;;-3.05;67.10
40117;BME280;25829;50.228;18.936;2023-03-16T05:11:15;99001.81;;;-3.08;66.96
40117;BME280;25829;50.228;18.936;2023-03-16T05:14:26;99012.13;;;-3.08;66.96
40117;BME280;25829;50.228;18.936;2023-03-16T05:17:42;99016.13;;;-3.04;66.82
40117;BME280;25829;50.228;18.936;2023-03-16T05:20:48;99012.75;;;-3.04;66.58
40117;BME280;25829;50.228;18.936;2023-03-16T05:23:52;99011.91;;;-3.05;66.76
40117;BME280;25829;50.228;18.936;2023-03-16T05:26:56;99017.09;;;-3.05;66.55
40117;BME280;25829;50.228;18.936;2023-03-16T05:29:58;99029.38;;;-3.08;66.69
40117;BME280;25829;50.228;18.936;2023-03-16T05:33:04;99027.00;;;-3.11;66.69
40117;BME280;25829;50.228;18.936;2023-03-16T05:36:06;99032.78;;;-3.08;66.88
40117;BME280;25829;50.228;18.936;2023-03-16T05:39:07;99029.88;;;-3.03;67.17
40117;BME280;25829;50.228;18.936;2023-03-16T05:42:11;99023.34;;;-2.96;67.10
40117;BME280;25829;50.228;18.936;2023-03-16T05:45:20;99032.91;;;-2.85;66.85
40117;BME280;25829;50.228;18.936;2023-03-16T05:48:41;99039.28;;;-2.78;67.01
40117;BME280;25829;50.228;18.936;2023-03-16T05:51:45;99037.09;;;-2.71;67.09
40117;BME280;25829;50.228;18.936;2023-03-16T05:54:46;99048.53;;;-2.63;67.18
40117;BME280;25829;50.228;18.936;2023-03-16T05:57:48;99042.09;;;-2.57;66.75
40117;BME280;25829;50.228;18.936;2023-03-16T06:00:49;99052.72;;;-2.49;67.23
40117;BME280;25829;50.228;18.936;2023-03-16T06:04:02;99063.22;;;-2.39;67.55
40117;BME280;25829;50.228;18.936;2023-03-16T06:07:08;99065.94;;;-2.30;67.88
40117;BME280;25829;50.228;18.936;2023-03-16T06:10:11;99067.88;;;-2.20;67.77
40117;BME280;25829;50.228;18.936;2023-03-16T06:13:12;99077.56;;;-2.11;67.95
40117;BME280;25829;50.228;18.936;2023-03-16T06:16:13;99081.00;;;-1.99;68.13
40117;BME280;25829;50.228;18.936;2023-03-16T06:19:16;99085.50;;;-1.90;68.19
40117;BME280;25829;50.228;18.936;2023-03-16T06:22:19;99084.81;;;-1.81;68.07
40117;BME280;25829;50.228;18.936;2023-03-16T06:25:20;99088.28;;;-1.69;68.14
40117;BME280;25829;50.228;18.936;2023-03-16T06:28:22;99090.88;;;-1.58;68.30
40117;BME280;25829;50.228;18.936;2023-03-16T06:31:23;99095.38;;;-1.49;68.65
40117;BME280;25829;50.228;18.936;2023-03-16T06:34:24;99092.06;;;-1.40;68.51
40117;BME280;25829;50.228;18.936;2023-03-16T06:37:25;99091.25;;;-1.29;68.41
40117;BME280;25829;50.228;18.936;2023-03-16T06:40:26;99093.97;;;-1.19;68.89
40117;BME280;25829;50.228;18.936;2023-03-16T06:43:27;99094.22;;;-1.00;68.84
40117;BME280;25829;50.228;18.936;2023-03-16T06:46:37;99089.00;;;-0.77;69.14
40117;BME280;25829;50.228;18.936;2023-03-16T06:49:46;99090.06;;;-0.57;68.85
40117;BME280;25829;50.228;18.936;2023-03-16T06:52:56;99101.88;;;-0.32;68.96
40117;BME280;25829;50.228;18.936;2023-03-16T06:55:57;99094.28;;;-0.13;68.72
40117;BME280;25829;50.228;18.936;2023-03-16T06:59:00;99102.34;;;0.05;68.89
40117;BME280;25829;50.228;18.936;2023-03-16T07:02:01;99103.31;;;0.25;68.28
40117;BME280;25829;50.228;18.936;2023-03-16T07:05:02;99094.00;;;0.43;68.33
40117;BME280;25829;50.228;18.936;2023-03-16T07:08:07;99098.22;;;0.65;67.45
40117;BME280;25829;50.228;18.936;2023-03-16T07:11:08;99110.59;;;0.73;67.58
40117;BME280;25829;50.228;18.936;2023-03-16T07:14:09;99111.47;;;0.83;67.28
40117;BME280;25829;50.228;18.936;2023-03-16T07:17:11;99116.69;;;0.93;67.31
40117;BME280;25829;50.228;18.936;2023-03-16T07:20:12;99123.03;;;1.00;66.46
40117;BME280;25829;50.228;18.936;2023-03-16T07:23:14;99125.91;;;1.06;66.24
40117;BME280;25829;50.228;18.936;2023-03-16T07:26:16;99120.09;;;1.14;65.99
40117;BME280;25829;50.228;18.936;2023-03-16T07:29:24;99122.97;;;1.21;66.41
40117;BME280;25829;50.228;18.936;2023-03-16T07:32:28;99130.13;;;1.28;65.64
40117;BME280;25829;50.228;18.936;2023-03-16T07:35:32;99123.56;;;1.34;65.35
40117;BME280;25829;50.228;18.936;2023-03-16T07:38:33;99118.66;;;1.41;65.27
40117;BME280;25829;50.228;18.936;2023-03-16T07:41:35;99125.25;;;1.54;65.74
40117;BME280;25829;50.228;18.936;2023-03-16T07:44:51;99116.41;;;1.76;65.50
40117;BME280;25829;50.228;18.936;2023-03-16T07:47:52;99125.59;;;2.00;64.93
40117;BME280;25829;50.228;18.936;2023-03-16T07:51:14;99124.25;;;2.15;64.66
40117;BME280;25829;50.228;18.936;2023-03-16T07:54:20;99128.75;;;2.23;63.90
40117;BME280;25829;50.228;18.936;2023-03-16T07:57:21;99130.81;;;2.19;63.87
40117;BME280;25829;50.228;18.936;2023-03-16T08:00:45;99130.53;;;2.32;63.73
40117;BME280;25829;50.228;18.936;2023-03-16T08:03:46;99134.50;;;2.46;63.50
40117;BME280;25829;50.228;18.936;2023-03-16T08:06:49;99135.03;;;2.49;63.33
40117;BME280;25829;50.228;18.936;2023-03-16T08:09:52;99135.97;;;2.58;nan
40117;BME280;25829;50.228;18.936;2023-03-16T08:12:58;99134.06;;;2.70;63.19
40117;BME280;25829;50.228;18.936;2023-03-16T08:15:59;99141.97;;;2.88;62.78
40117;BME280;25829;50.228;18.936;2023-03-16T08:19:12;99142.47;;;3.01;62.43
40117;BME280;25829;50.228;18.936;2023-03-16T08:22:14;99141.06;;;3.07;62.12
40117;BME280;25829;50.228;18.936;2023-03-16T08:25:18;99148.84;;;3.16;61.57
40117;BME280;25829;50.228;18.936;2023-03-16T08:28:30;99152.53;;;3.23;61.99
40117;BME280;25829;50.228;18.936;2023-03-16T08:31:34;99151.44;;;3.26;61.36
40117;BME280;25829;50.228;18.936;2023-03-16T08:34:47;99155.41;;;3.20;60.86
40117;BME280;25829;50.228;18.936;2023-03-16T08:37:51;99145.44;;;3.16;61.34
40117;BME280;25829;50.228;18.936;2023-03-16T08:40:55;99156.31;;;3.11;60.58
40117;BME280;25829;50.228;18.936;2023-03-16T08:43:57;99162.47;;;3.10;60.98
40117;BME280;25829;50.228;18.936;2023-03-16T08:47:10;99154.91;;;3.07;60.79
40117;BME280;25829;50.228;18.936;2023-03-16T08:50:14;99159.72;;;3.12;60.79
40117;BME280;25829;50.228;18.936;2023-03-16T08:53:15;99153.38;;;3.14;60.44
40117;BME280;25829;50.228;18.936;2023-03-16T08:56:15;99154.31;;;3.23;60.49
40117;BME280;25829;50.228;18.936;2023-03-16T08:59:16;99160.59;;;3.30;60.28
40117;BME280;25829;50.228;18.936;2023-03-16T09:02:17;99163.19;;;3.40;60.37
40117;BME280;25829;50.228;18.936;2023-03-16T09:05:18;99161.22;;;3.42;59.31
40117;BME280;25829;50.228;18.936;2023-03-16T09:08:19;99164.81;;;3.41;59.67
40117;BME280;25829;50.228;18.936;2023-03-16T09:11:20;99178.91;;;3.58;59.51
40117;BME280;25829;50.228;18.936;2023-03-16T09:14:21;99172.84;;;3.67;59.25
40117;BME280;25829;50.228;18.936;2023-03-16T09:17:22;99175.97;;;3.71;58.60
40117;BME280;25829;50.228;18.936;2023-03-16T09:20:24;99177.31;;;3.75;58.78
40117;BME280;25829;50.228;18.936;2023-03-16T09:23:25;99175.97;;;3.71;58.48
40117;BME280;25829;50.228;18.936;2023-03-16T09:26:27;99165.09;;;3.75;58.85
40117;BME280;25829;50.228;18.936;2023-03-16T09:29:28;99170.91;;;3.87;58.56
40117;BME280;25829;50.228;18.936;2023-03-16T09:32:28;99168.75;;;4.00;57.67
40117;BME280;25829;50.228;18.936;2023-03-16T09:35:30;99172.28;;;4.09;57.48
40117;BME280;25829;50.228;18.936;2023-03-16T09:38:31;99177.34;;;4.10;56.13
40117;BME280;25829;50.228;18.936;2023-03-16T09:41:55;99170.50;;;4.09;56.84
40117;BME280;25829;50.228;18.936;2023-03-16T09:45:15;99174.38;;;4.23;56.82
40117;BME280;25829;50.228;18.936;2023-03-16T09:48:26;99167.00;;;4.36;55.45
40117;BME280;25829;50.228;18.936;2023-03-16T09:51:52;99174.66;;;4.38;54.81
40117;BME280;25829;50.228;18.936;2023-03-16T09:58:00;99181.47;;;4.31;55.32
40117;BME280;25829;50.228;18.936;2023-03-16T10:08:49;99184.91;;;4.93;53.94
40117;BME280;25829;50.228;18.936;2023-03-16T10:11:55;99187.16;;;4.88;53.94
40117;BME280;25829;50.228;18.936;2023-03-16T10:15:05;99190.38;;;4.82;53.39
40117;BME280;25829;50.228;18.936;2023-03-16T10:18:17;99189.41;;;4.83;53.32
40117;BME280;25829;50.228;18.936;2023-03-16T10:21:22;99190.94;;;5.20;53.62
40117;BME280;25829;50.228;18.936;2023-03-16T10:24:47;99194.78;;;5.68;52.51
40117;BME280;25829;50.228;18.936;2023-03-16T10:27:52;99190.78;;;5.90;52.29
40117;BME280;25829;50.228;18.936;2023-03-16T10:30:55;99195.41;;;5.96;52.24
40117;BME280;25829;50.228;18.936;2023-03-16T10:34:07;99193.59;;;6.04;52.32
40117;BME280;25829;50.228;18.936;2023-03-16T10:37:31;99196.41;;;6.11;51.52
40117;BME280;25829;50.228;18.936;2023-03-16T10:40:38;99187.88;;;6.01;51.35
40117;BME280;25829;50.228;18.936;2023-03-16T10:43:39;99200.22;;;5.74;50.47
40117;BME280;25829;50.228;18.936;2023-03-16T10:47:05;99192.94;;;5.60;50.31
40117;BME280;25829;50.228;18.936;2023-03-16T10:54:38;99191.63;;;5.56;50.87
40117;BME280;25829;50.228;18.936;2023-03-16T10:57:50;99194.41;;;5.54;50.93
40117;BME280;25829;50.228;18.936;2023-03-16T11:00:53;99196.97;;;5.46;49.92
40117;BME280;25829;50.228;18.936;2023-03-16T11:03:55;99185.47;;;5.39;50.25
40117;BME280;25829;50.228;18.936;2023-03-16T11:10:56;99179.00;;;5.17;47.27
40117;BME280;25829;50.228;18.936;2023-03-16T11:13:59;99178.22;;;5.25;49.81
40117;BME280;25829;50.228;18.936;2023-03-16T11:17:18;99177.50;;;5.49;48.10
40117;BME280;25829;50.228;18.936;2023-03-16T11:20:31;99171.34;;;5.58;48.58
40117;BME280;25829;50.228;18.936;2023-03-16T11:23:38;99168.66;;;5.42;43.80
40117;BME280;25829;50.228;18.936;2023-03-16T11:26:44;99186.38;;;5.22;46.23
40117;BME280;25829;50.228;18.936;2023-03-16T11:33:17;99164.44;;;5.49;47.66
40117;BME280;25829;50.228;18.936;2023-03-16T11:46:46;99163.97;;;6.04;46.05
40117;BME280;25829;50.228;18.936;2023-03-16T11:56:38;99160.47;;;5.87;47.05
40117;BME280;25829;50.228;18.936;2023-03-16T12:10:04;99166.69;;;5.78;46.85
40117;BME280;25829;50.228;18.936;2023-03-16T12:13:36;99156.84;;;5.72;44.21
40117;BME280;25829;50.228;18.936;2023-03-16T12:20:26;99162.53;;;5.67;46.47
40117;BME280;25829;50.228;18.936;2023-03-16T12:23:32;99168.25;;;5.63;46.61
40117;BME280;25829;50.228;18.936;2023-03-16T12:26:39;99172.97;;;5.59;45.92
40117;BME280;25829;50.228;18.936;2023-03-16T12:33:25;99164.84;;;5.70;46.93
40117;BME280;25829;50.228;18.936;2023-03-16T12:39:55;99164.06;;;5.78;45.99
40117;BME280;25829;50.228;18.936;2023-03-16T12:43:26;99155.72;;;5.82;45.35
40117;BME280;25829;50.228;18.936;2023-03-16T12:50:07;99158.56;;;5.97;46.03
40117;BME280;25829;50.228;18.936;2023-03-16T12:57:17;99153.50;;;6.12;45.89
40117;BME280;25829;50.228;18.936;2023-03-16T13:00:33;99153.84;;;6.25;45.24
40117;BME280;25829;50.228;18.936;2023-03-16T13:03:35;99155.31;;;6.28;44.61
40117;BME280;25829;50.228;18.936;2023-03-16T13:06:36;99158.44;;;6.23;45.15
40117;BME280;25829;50.228;18.936;2023-03-16T13:10:06;99156.28;;;6.19;44.23
40117;BME280;25829;50.228;18.936;2023-03-16T13:13:15;99157.94;;;6.20;44.43
40117;BME280;25829;50.228;18.936;2023-03-16T13:16:28;99154.34;;;6.21;43.87
40117;BME280;25829;50.228;18.936;2023-03-16T13:19:29;99155.31;;;6.28;44.03
40117;BME280;25829;50.228;18.936;2023-03-16T13:26:47;99156.78;;;6.47;42.81
40117;BME280;25829;50.228;18.936;2023-03-16T13:30:42;99156.00;;;6.54;41.28
40117;BME280;25829;50.228;18.936;2023-03-16T13:33:56;99156.31;;;6.43;39.93
40117;BME280;25829;50.228;18.936;2023-03-16T13:36:59;99157.16;;;6.44;41.97
40117;BME280;25829;50.228;18.936;2023-03-16T13:40:22;99155.66;;;6.49;40.63
40117;BME280;25829;50.228;18.936;2023-03-16T13:43:31;99166.63;;;6.53;42.06
40117;BME280;25829;50.228;18.936;2023-03-16T13:46:52;99158.78;;;6.61;42.39
40117;BME280;25829;50.228;18.936;2023-03-16T13:49:55;99153.66;;;6.68;41.79
40117;BME280;25829;50.228;18.936;2023-03-16T13:56:51;99145.63;;;6.77;40.76
40117;BME280;25829;50.228;18.936;2023-03-16T14:17:44;99148.22;;;7.10;39.87
40117;BME280;25829;50.228;18.936;2023-03-16T14:34:29;99144.34;;;6.65;40.48
40117;BME280;25829;50.228;18.936;2023-03-16T14:37:45;99143.88;;;6.62;40.62
40117;BME280;25829;50.228;18.936;2023-03-16T14:41:19;99145.66;;;6.69;40.95
40117;BME280;25829;50.228;18.936;2023-03-16T14:44:23;99148.44;;;6.76;41.18
40117;BME280;25829;50.228;18.936;2023-03-16T14:47:31;99145.81;;;6.76;40.84
40117;BME280;25829;50.228;18.936;2023-03-16T14:50:43;99152.88;;;6.75;40.68
40117;BME280;25829;50.228;18.936;2023-03-16T14:53:56;99154.97;;;6.80;41.01
40117;BME280;25829;50.228;18.936;2023-03-16T14:57:03;99158.13;;;6.75;40.84
40117;BME280;25829;50.228;18.936;2023-03-16T15:00:15;99160.41;;;6.70;41.00
40117;BME280;25829;50.228;18.936;2023-03-16T15:03:16;99152.22;;;6.65;40.92
40117;BME280;25829;50.228;18.936;2023-03-16T15:06:17;99162.38;;;6.60;41.20
40117;BME280;25829;50.228;18.936;2023-03-16T15:09:52;99156.47;;;6.50;40.74
40117;BME280;25829;50.228;18.936;2023-03-16T15:13:14;99160.91;;;6.41;40.98
40117;BME280;25829;50.228;18.936;2023-03-16T15:16:33;99169.25;;;6.37;41.97
40117;BME280;25829;50.228;18.936;2023-03-16T15:19:34;99165.16;;;6.34;42.23
40117;BME280;25829;50.228;18.936;2023-03-16T15:22:39;99166.81;;;6.27;41.82
40117;BME280;25829;50.228;18.936;2023-03-16T15:25:44;99166.44;;;6.22;42.22
40117;BME280;25829;50.228;18.936;2023-03-16T15:28:46;99166.63;;;6.20;42.45
40117;BME280;25829;50.228;18.936;2023-03-16T15:31:48;99159.09;;;6.17;42.00
40117;BME280;25829;50.228;18.936;2023-03-16T15:34:59;99164.16;;;6.19;41.95
40117;BME280;25829;50.228;18.936;2023-03-16T15:38:26;99161.34;;;6.12;41.99
40117;BME280;25829;50.228;18.936;2023-03-16T15:41:28;99160.53;;;6.03;42.13
40117;BME280;25829;50.228;18.936;2023-03-16T15:45:40;99156.44;;;6.01;41.21
40117;BME280;25829;50.228;18.936;2023-03-16T15:48:47;99163.78;;;5.97;41.40
40117;BME280;25829;50.228;18.936;2023-03-16T15:51:48;99156.25;;;5.94;42.39
40117;BME280;25829;50.228;18.936;2023-03-16T15:54:49;99169.53;;;5.93;41.66
40117;BME280;25829;50.228;18.936;2023-03-16T15:57:59;99168.31;;;5.87;41.31
40117;BME280;25829;50.228;18.936;2023-03-16T16:01:01;99167.19;;;5.81;41.69
40117;BME280;25829;50.228;18.936;2023-03-16T16:04:03;99173.22;;;5.82;42.38
40117;BME280;25829;50.228;18.936;2023-03-16T16:07:08;99172.72;;;5.78;42.07
40117;BME280;25829;50.228;18.936;2023-03-16T16:10:12;99171.53;;;5.65;40.64
40117;BME280;25829;50.228;18.936;2023-03-16T16:13:24;99173.47;;;5.54;41.04
40117;BME280;25829;50.228;18.936;2023-03-16T16:16:27;99174.09;;;5.48;41.83
40117;BME280;25829;50.228;18.936;2023-03-16T16:19:28;99184.72;;;5.47;42.03
40117;BME280;25829;50.228;18.936;2023-03-16T16:22:36;99178.97;;;5.43;41.84
40117;BME280;25829;50.228;18.936;2023-03-16T16:25:39;99184.84;;;5.37;41.69
40117;BME280;25829;50.228;18.936;2023-03-16T16:28:41;99181.19;;;5.30;41.26
40117;BME280;25829;50.228;18.936;2023-03-16T16:31:42;99193.09;;;5.24;41.47
40117;BME280;25829;50.228;18.936;2023-03-16T16:34:43;99186.84;;;5.17;41.42
40117;BME280;25829;50.228;18.936;2023-03-16T16:37:44;99194.00;;;5.15;41.20
40117;BME280;25829;50.228;18.936;2023-03-16T16:40:52;99193.66;;;5.10;42.04
40117;BME280;25829;50.228;18.936;2023-03-16T16:43:56;99194.44;;;5.02;41.93
40117;BME280;25829;50.228;18.936;2023-03-16T16:51:00;99204.44;;;4.81;42.08
40117;BME280;25829;50.228;18.936;2023-03-16T16:54:00;99196.16;;;4.68;42.45
40117;BME280;25829;50.228;18.936;2023-03-16T16:57:01;99200.78;;;4.56;42.80
40117;BME280;25829;50.228;18.936;2023-03-16T17:00:03;99203.94;;;4.41;43.22
40117;BME280;25829;50.228;18.936;2023-03-16T17:03:37;99207.59;;;4.31;43.43
40117;BME280;25829;50.228;18.936;2023-03-16T17:14:56;99220.13;;;3.82;45.16
40117;BME280;25829;50.228;18.936;2023-03-16T17:18:01;99218.66;;;3.69;45.50
40117;BME280;25829;50.228;18.936;2023-03-16T17:21:23;99220.66;;;3.58;45.71
40117;BME280;25829;50.228;18.936;2023-03-16T17:24:24;99226.34;;;3.43;46.42
40117;BME280;25829;50.228;18.936;2023-03-16T17:27:45;99228.56;;;3.29;46.58
40117;BME280;25829;50.228;18.936;2023-03-16T17:34:26;99224.91;;;3.02;46.70
40117;BME280;25829;50.228;18.936;2023-03-16T17:40:51;99228.13;;;2.77;47.23
40117;BME280;25829;50.228;18.936;2023-03-16T17:43:54;99222.75;;;2.68;47.59
40117;BME280;25829;50.228;18.936;2023-03-16T17:46:56;99223.03;;;2.56;47.59
40117;BME280;25829;50.228;18.936;2023-03-16T17:49:57;99217.16;;;2.44;47.77
40117;BME280;25829;50.228;18.936;2023-03-16T17:52:58;99215.34;;;2.35;48.37
40117;BME280;25829;50.228;18.936;2023-03-16T17:55:58;99221.25;;;2.27;48.31
40117;BME280;25829;50.228;18.936;2023-03-16T17:59:03;99229.72;;;2.19;48.54
40117;BME280;25829;50.228;18.936;2023-03-16T18:02:27;99227.38;;;2.07;48.72
40117;BME280;25829;50.228;18.936;2023-03-16T18:05:33;99247.75;;;1.92;49.00
40117;BME280;25829;50.228;18.936;2023-03-16T18:08:35;99237.56;;;1.79;49.46
40117;BME280;25829;50.228;18.936;2023-03-16T18:11:36;99249.72;;;1.69;49.84
40117;BME280;25829;50.228;18.936;2023-03-16T18:14:41;99241.91;;;1.59;49.79
40117;BME280;25829;50.228;18.936;2023-03-16T18:17:42;99239.25;;;1.49;49.84
40117;BME280;25829;50.228;18.936;2023-03-16T18:20:44;99248.38;;;1.44;50.18
40117;BME280;25829;50.228;18.936;2023-03-16T18:23:45;99250.94;;;1.34;50.18
40117;BME280;25829;50.228;18.936;2023-03-16T18:26:46;99249.13;;;1.25;50.35
40117;BME280;25829;50.228;18.936;2023-03-16T18:29:47;99246.47;;;1.15;50.75
40117;BME280;25829;50.228;18.936;2023-03-16T18:32:49;99253.13;;;1.08;50.65
40117;BME280;25829;50.228;18.936;2023-03-16T18:35:52;99252.94;;;1.00;50.24